createdAt,value
2022-09-04T00:01:04.200Z,99.90
2022-09-04T00:03:57.963Z,99.90
2022-09-04T00:06:51.084Z,99.90
2022-09-04T00:09:44.325Z,99.90
2022-09-04T00:12:34.079Z,99.90
2022-09-04T00:15:22.638Z,99.90
2022-09-04T00:18:14.113Z,99.90
2022-09-04T00:21:06.559Z,99.90
2022-09-04T00:23:57.377Z,99.90
2022-09-04T00:26:50.463Z,99.90
2022-09-04T00:29:42.215Z,99.90
2022-09-04T00:32:34.787Z,99.90
2022-09-04T00:35:23.611Z,99.90
2022-09-04T00:38:15.205Z,99.90
2022-09-04T00:41:07.416Z,99.90
2022-09-04T00:44:05.199Z,99.90
2022-09-04T00:47:03.593Z,99.90
2022-09-04T00:50:07.281Z,99.90
2022-09-04T00:53:13.333Z,99.90
2022-09-04T00:56:08.516Z,99.90
2022-09-04T00:59:02.976Z,99.90
2022-09-04T01:01:52.008Z,99.90
2022-09-04T01:04:44.722Z,99.90
2022-09-04T01:07:43.100Z,99.90
2022-09-04T01:10:39.711Z,99.90
2022-09-04T01:13:34.154Z,99.90
2022-09-04T01:16:26.093Z,99.90
2022-09-04T01:19:24.555Z,99.90
2022-09-04T01:22:17.495Z,99.90
2022-09-04T01:25:11.973Z,99.90
2022-09-04T01:28:05.043Z,99.90
2022-09-04T01:30:55.706Z,99.90
2022-09-04T01:33:46.296Z,99.90
2022-09-04T01:36:38.336Z,99.90
2022-09-04T01:39:28.660Z,99.90
2022-09-04T01:42:19.847Z,99.90
2022-09-04T01:45:11.195Z,99.90
2022-09-04T01:48:02.197Z,99.90
2022-09-04T01:50:51.755Z,99.90
2022-09-04T01:53:43.575Z,99.90
2022-09-04T01:56:36.345Z,99.90
2022-09-04T01:59:27.447Z,99.90
2022-09-04T02:02:19.195Z,99.90
2022-09-04T02:05:10.055Z,99.90
2022-09-04T02:08:02.368Z,99.90
2022-09-04T02:10:56.562Z,99.90
2022-09-04T02:14:04.580Z,99.90
2022-09-04T02:17:00.486Z,99.90
2022-09-04T02:20:01.238Z,99.90
2022-09-04T02:22:52.419Z,99.90
2022-09-04T02:25:42.517Z,99.90
2022-09-04T02:28:34.619Z,99.90
2022-09-04T02:31:29.935Z,99.90
2022-09-04T02:34:23.188Z,99.90
2022-09-04T02:37:16.309Z,99.90
2022-09-04T02:40:12.103Z,99.90
2022-09-04T02:43:05.595Z,99.90
2022-09-04T02:45:57.222Z,99.90
2022-09-04T02:48:52.347Z,99.90
2022-09-04T02:51:47.797Z,99.90
2022-09-04T02:54:43.876Z,99.90
2022-09-04T02:57:39.711Z,99.90
2022-09-04T03:00:33.449Z,99.90
2022-09-04T03:03:22.510Z,99.90
2022-09-04T03:06:11.896Z,99.90
2022-09-04T03:09:06.216Z,99.90
2022-09-04T03:11:59.023Z,99.90
2022-09-04T03:14:51.847Z,99.90
2022-09-04T03:17:47.315Z,99.90
2022-09-04T03:20:39.443Z,99.90
2022-09-04T03:23:33.238Z,99.90
2022-09-04T03:26:23.431Z,99.90
2022-09-04T03:29:15.749Z,99.90
2022-09-04T03:32:15.879Z,99.90
2022-09-04T03:35:08.065Z,99.90
2022-09-04T03:38:07.836Z,99.90
2022-09-04T03:41:04.585Z,99.90
2022-09-04T03:43:58.944Z,99.90
2022-09-04T03:46:53.907Z,99.90
2022-09-04T03:49:48.152Z,99.90
2022-09-04T03:52:45.624Z,99.90
2022-09-04T03:55:38.424Z,99.90
2022-09-04T03:58:29.401Z,99.90
2022-09-04T04:01:25.141Z,99.90
2022-09-04T04:04:34.350Z,99.90
2022-09-04T04:07:28.130Z,99.90
2022-09-04T04:10:22.817Z,99.90
2022-09-04T04:13:22.373Z,99.90
2022-09-04T04:16:25.972Z,99.90
2022-09-04T04:19:25.685Z,99.90
2022-09-04T04:22:22.149Z,99.90
2022-09-04T04:25:20.188Z,99.90
2022-09-04T04:28:20.327Z,99.90
2022-09-04T04:31:14.994Z,99.90
2022-09-04T04:34:07.482Z,99.90
2022-09-04T04:36:57.636Z,99.90
2022-09-04T04:39:50.938Z,99.90
2022-09-04T04:42:44.003Z,99.90
2022-09-04T04:45:51.416Z,99.90
2022-09-04T04:48:59.965Z,99.90
2022-09-04T04:52:08.234Z,99.90
2022-09-04T04:55:06.470Z,99.90
2022-09-04T04:58:01.752Z,99.90
2022-09-04T05:00:51.653Z,99.90
2022-09-04T05:03:51.048Z,99.90
2022-09-04T05:06:42.763Z,99.90
2022-09-04T05:09:35.435Z,99.90
2022-09-04T05:12:28.855Z,99.90
2022-09-04T05:15:19.297Z,99.90
2022-09-04T05:18:12.626Z,99.90
2022-09-04T05:21:05.475Z,99.90
2022-09-04T05:23:55.607Z,99.90
2022-09-04T05:26:46.782Z,99.90
2022-09-04T05:29:41.046Z,99.90
2022-09-04T05:32:32.595Z,99.90
2022-09-04T05:35:24.134Z,99.90
2022-09-04T05:38:17.640Z,99.90
2022-09-04T05:41:07.134Z,99.90
2022-09-04T05:44:01.908Z,99.90
2022-09-04T05:46:56.954Z,99.90
2022-09-04T05:49:54.581Z,99.90
2022-09-04T05:52:52.000Z,99.90
2022-09-04T05:55:49.686Z,99.90
2022-09-04T05:58:50.542Z,99.90
2022-09-04T06:01:51.988Z,99.90
2022-09-04T06:04:53.743Z,99.90
2022-09-04T06:07:45.207Z,99.90
2022-09-04T06:10:37.630Z,99.90
2022-09-04T06:13:32.030Z,99.90
2022-09-04T06:16:28.153Z,99.90
2022-09-04T06:19:21.227Z,99.90
2022-09-04T06:22:30.780Z,99.90
2022-09-04T06:25:25.492Z,99.90
2022-09-04T06:28:19.191Z,99.90
2022-09-04T06:31:12.883Z,99.90
2022-09-04T06:34:05.330Z,99.90
2022-09-04T06:36:57.623Z,99.90
2022-09-04T06:40:00.924Z,99.90
2022-09-04T06:42:53.699Z,99.90
2022-09-04T06:45:46.645Z,99.90
2022-09-04T06:48:43.334Z,99.90
2022-09-04T06:51:38.383Z,99.90
2022-09-04T06:54:33.372Z,99.90
2022-09-04T06:57:32.808Z,99.90
2022-09-04T07:00:20.464Z,99.90
2022-09-04T07:03:28.796Z,99.90
2022-09-04T07:06:20.776Z,99.90
2022-09-04T07:09:12.630Z,99.90
2022-09-04T07:12:27.862Z,99.90
2022-09-04T07:15:42.508Z,99.90
2022-09-04T07:18:42.987Z,99.90
2022-09-04T07:21:33.599Z,99.90
2022-09-04T07:24:38.807Z,99.90
2022-09-04T07:27:37.643Z,99.90
2022-09-04T07:30:28.732Z,99.90
2022-09-04T07:33:20.638Z,99.90
2022-09-04T07:36:14.759Z,99.90
2022-09-04T07:39:06.118Z,99.90
2022-09-04T07:41:57.365Z,99.90
2022-09-04T07:44:48.979Z,99.90
2022-09-04T07:47:39.585Z,99.90
2022-09-04T07:50:27.800Z,99.90
2022-09-04T07:53:24.454Z,99.90
2022-09-04T07:56:18.728Z,99.90
2022-09-04T07:59:25.294Z,99.90
2022-09-04T08:02:22.966Z,99.90
2022-09-04T08:05:20.906Z,99.90
2022-09-04T08:08:21.388Z,99.90
2022-09-04T08:11:28.221Z,99.90
2022-09-04T08:14:22.127Z,99.90
2022-09-04T08:17:41.496Z,99.90
2022-09-04T08:20:36.899Z,99.90
2022-09-04T08:23:31.852Z,99.90
2022-09-04T08:26:25.158Z,99.90
2022-09-04T08:29:20.573Z,99.90
2022-09-04T08:32:21.398Z,99.90
2022-09-04T08:35:18.125Z,99.90
2022-09-04T08:38:19.146Z,99.90
2022-09-04T08:41:18.921Z,99.90
2022-09-04T08:44:32.658Z,99.90
2022-09-04T08:47:32.001Z,99.90
2022-09-04T08:50:34.513Z,99.90
2022-09-04T08:53:40.730Z,99.90
2022-09-04T08:56:31.529Z,99.90
2022-09-04T08:59:40.717Z,99.90
2022-09-04T09:02:55.391Z,99.90
2022-09-04T09:05:57.588Z,99.90
2022-09-04T09:09:02.543Z,99.90
2022-09-04T09:12:04.964Z,99.90
2022-09-04T09:15:14.015Z,99.90
2022-09-04T09:18:03.195Z,99.90
2022-09-04T09:20:55.223Z,99.90
2022-09-04T09:24:03.571Z,99.90
2022-09-04T09:27:02.135Z,99.90
2022-09-04T09:30:03.355Z,99.90
2022-09-04T09:33:02.411Z,99.90
2022-09-04T09:36:09.201Z,99.90
2022-09-04T09:39:15.022Z,99.90
2022-09-04T09:42:24.138Z,99.90
2022-09-04T09:45:28.144Z,99.90
2022-09-04T09:48:37.033Z,99.90
2022-09-04T09:51:46.736Z,99.90
2022-09-04T09:54:58.599Z,99.90
2022-09-04T09:58:01.324Z,99.90
2022-09-04T10:00:59.138Z,99.90
2022-09-04T10:04:17.040Z,99.90
2022-09-04T10:07:21.339Z,99.90
2022-09-04T10:10:24.927Z,99.90
2022-09-04T10:13:42.482Z,99.90
2022-09-04T10:16:58.302Z,99.90
2022-09-04T10:20:20.499Z,99.90
2022-09-04T10:23:35.714Z,99.90
2022-09-04T10:26:51.204Z,99.90
2022-09-04T10:29:46.704Z,99.90
2022-09-04T10:32:51.324Z,99.90
2022-09-04T10:35:47.262Z,99.90
2022-09-04T10:39:01.534Z,99.90
2022-09-04T10:42:01.472Z,99.90
2022-09-04T10:45:00.721Z,99.90
2022-09-04T10:48:08.926Z,99.90
2022-09-04T10:51:11.874Z,99.90
2022-09-04T10:54:14.921Z,99.90
2022-09-04T10:57:10.195Z,99.90
2022-09-04T11:00:05.801Z,99.90
2022-09-04T11:03:13.078Z,99.90
2022-09-04T11:06:19.578Z,99.90
2022-09-04T11:09:15.991Z,99.90
2022-09-04T11:12:21.377Z,99.50
2022-09-04T11:15:25.547Z,98.70
2022-09-04T11:18:30.763Z,98.50
2022-09-04T11:21:37.367Z,98.40
2022-09-04T11:24:44.678Z,97.80
2022-09-04T11:27:56.308Z,98.10
2022-09-04T11:30:55.701Z,99.10
2022-09-04T11:34:08.290Z,98.60
2022-09-04T11:37:19.507Z,98.20
2022-09-04T11:40:19.862Z,97.90
2022-09-04T11:43:16.112Z,97.70
2022-09-04T11:46:26.265Z,97.80
2022-09-04T11:49:21.005Z,97.90
2022-09-04T11:52:16.241Z,98.70
2022-09-04T11:55:31.385Z,97.60
2022-09-04T11:58:30.606Z,99.30
2022-09-04T12:01:25.872Z,98.30
2022-09-04T12:04:26.667Z,98.00
2022-09-04T12:07:19.826Z,96.70
2022-09-04T12:10:15.410Z,96.50
2022-09-04T12:13:18.501Z,97.60
2022-09-04T12:16:15.035Z,97.10
2022-09-04T12:19:21.459Z,96.30
2022-09-04T12:22:36.119Z,96.70
2022-09-04T12:25:35.096Z,95.90
2022-09-04T12:28:40.373Z,94.90
2022-09-04T12:31:51.899Z,94.50
2022-09-04T12:35:09.077Z,94.80
2022-09-04T12:38:11.694Z,94.70
2022-09-04T12:41:03.051Z,94.30
2022-09-04T12:43:56.784Z,93.90
2022-09-04T12:46:55.739Z,93.00
2022-09-04T12:49:58.390Z,93.00
2022-09-04T12:53:05.768Z,94.80
2022-09-04T12:56:03.306Z,93.10
2022-09-04T12:58:56.159Z,92.50
2022-09-04T13:01:52.854Z,93.30
2022-09-04T13:04:47.159Z,93.40
2022-09-04T13:07:43.090Z,93.80
2022-09-04T13:10:36.143Z,93.80
2022-09-04T13:13:28.390Z,93.30
2022-09-04T13:16:22.652Z,93.00
2022-09-04T13:19:15.131Z,92.90
2022-09-04T13:22:10.018Z,92.20
2022-09-04T13:25:02.806Z,92.70
2022-09-04T13:27:57.479Z,92.30
2022-09-04T13:30:48.657Z,92.20
2022-09-04T13:33:49.213Z,92.90
2022-09-04T13:36:42.818Z,92.40
2022-09-04T13:39:45.691Z,93.30
2022-09-04T13:42:52.106Z,93.20
2022-09-04T13:45:41.975Z,92.80
2022-09-04T13:48:37.422Z,93.70
2022-09-04T13:51:29.914Z,92.40
2022-09-04T13:54:19.667Z,92.50
2022-09-04T13:57:09.473Z,92.00
2022-09-04T14:00:00.341Z,91.20
2022-09-04T14:02:48.689Z,92.20
2022-09-04T14:05:38.737Z,91.60
2022-09-04T14:08:31.376Z,91.40
2022-09-04T14:11:30.302Z,91.30
2022-09-04T14:14:32.653Z,90.50
2022-09-04T14:17:27.086Z,91.40
2022-09-04T14:20:20.676Z,90.40
2022-09-04T14:23:20.490Z,90.00
2022-09-04T14:26:14.451Z,88.60
2022-09-04T14:29:05.248Z,90.30
2022-09-04T14:31:58.921Z,89.90
2022-09-04T14:34:50.256Z,89.30
2022-09-04T14:37:49.334Z,90.20
2022-09-04T14:40:39.911Z,89.00
2022-09-04T14:43:33.473Z,90.60
2022-09-04T14:46:24.318Z,91.70
2022-09-04T14:49:16.553Z,88.00
2022-09-04T14:52:11.461Z,86.90
2022-09-04T14:54:59.741Z,85.10
2022-09-04T14:57:51.449Z,87.20
2022-09-04T15:00:57.270Z,85.50
2022-09-04T15:03:47.308Z,85.70
2022-09-04T15:06:49.309Z,82.20
2022-09-04T15:09:48.138Z,84.90
2022-09-04T15:12:37.555Z,82.40
2022-09-04T15:15:32.302Z,82.00
2022-09-04T15:18:23.649Z,82.20
2022-09-04T15:21:18.316Z,82.70
2022-09-04T15:24:13.512Z,81.90
2022-09-04T15:27:06.753Z,84.20
2022-09-04T15:30:05.345Z,85.60
2022-09-04T15:33:04.363Z,84.30
2022-09-04T15:35:59.185Z,84.40
2022-09-04T15:38:49.803Z,84.40
2022-09-04T15:41:39.763Z,84.20
2022-09-04T15:44:30.395Z,84.40
2022-09-04T15:47:20.518Z,83.40
2022-09-04T15:50:18.956Z,85.40
2022-09-04T15:53:14.341Z,85.20
2022-09-04T15:56:06.345Z,83.40
2022-09-04T15:58:57.800Z,81.90
2022-09-04T16:01:49.651Z,81.60
2022-09-04T16:04:42.459Z,81.60
2022-09-04T16:07:36.865Z,80.60
2022-09-04T16:10:26.908Z,81.10
2022-09-04T16:13:31.070Z,83.30
2022-09-04T16:16:23.002Z,81.80
2022-09-04T16:19:31.865Z,82.50
2022-09-04T16:22:27.445Z,82.60
2022-09-04T16:25:27.241Z,82.00
2022-09-04T16:28:19.336Z,78.70
2022-09-04T16:31:12.313Z,79.90
2022-09-04T16:34:01.259Z,79.70
2022-09-04T16:36:51.723Z,81.40
2022-09-04T16:39:46.668Z,79.10
2022-09-04T16:42:40.309Z,81.00
2022-09-04T16:45:30.197Z,80.10
2022-09-04T16:48:34.149Z,78.70
2022-09-04T16:51:41.008Z,79.80
2022-09-04T16:54:32.025Z,78.20
2022-09-04T16:57:21.619Z,80.10
2022-09-04T17:00:13.661Z,78.90
2022-09-04T17:03:02.979Z,80.60
2022-09-04T17:05:52.998Z,83.40
2022-09-04T17:08:41.305Z,82.40
2022-09-04T17:11:32.429Z,82.90
2022-09-04T17:14:21.868Z,81.30
2022-09-04T17:17:30.121Z,82.00
2022-09-04T17:20:23.883Z,81.40
2022-09-04T17:29:01.229Z,82.40
2022-09-04T17:29:09.935Z,84.00
2022-09-04T17:29:49.659Z,86.00
2022-09-04T17:37:07.869Z,87.40
2022-09-04T17:40:36.360Z,86.90
2022-09-04T17:40:55.715Z,88.90
2022-09-04T17:42:22.350Z,89.70
2022-09-04T17:45:13.964Z,89.90
2022-09-04T17:48:06.992Z,90.60
2022-09-04T17:51:03.559Z,89.50
2022-09-04T17:53:52.877Z,90.40
2022-09-04T17:56:42.743Z,90.10
2022-09-04T17:59:35.400Z,90.00
2022-09-04T18:02:29.084Z,90.10
2022-09-04T18:05:21.928Z,90.60
2022-09-04T18:08:12.996Z,91.30
2022-09-04T18:11:06.800Z,91.90
2022-09-04T18:14:01.357Z,91.90
2022-09-04T18:17:11.648Z,92.10
2022-09-04T18:20:08.247Z,92.50
2022-09-04T18:23:03.381Z,92.60
2022-09-04T18:25:54.155Z,92.30
2022-09-04T18:28:50.493Z,92.80
2022-09-04T18:37:08.217Z,92.60
2022-09-04T18:37:23.606Z,93.00
2022-09-04T18:38:00.862Z,93.10
2022-09-04T18:46:28.843Z,92.20
2022-09-04T18:50:31.250Z,92.90
2022-09-04T18:50:51.124Z,93.20
2022-09-04T18:53:42.575Z,92.90
2022-09-04T18:56:36.239Z,93.40
2022-09-04T18:59:28.035Z,94.10
2022-09-04T19:02:19.262Z,93.50
2022-09-04T19:05:08.834Z,94.90
2022-09-04T19:07:59.218Z,95.60
2022-09-04T19:10:48.385Z,95.10
2022-09-04T19:13:40.604Z,95.50
2022-09-04T19:16:33.272Z,95.50
2022-09-04T19:19:22.732Z,96.80
2022-09-04T19:22:14.982Z,97.00
2022-09-04T19:25:05.028Z,97.20
2022-09-04T19:27:55.337Z,97.40
2022-09-04T19:30:51.741Z,98.00
2022-09-04T19:33:42.626Z,97.70
2022-09-04T19:36:35.702Z,97.60
2022-09-04T19:46:07.235Z,98.00
2022-09-04T19:46:12.323Z,98.20
2022-09-04T19:46:18.487Z,97.70
2022-09-04T19:50:16.911Z,99.20
2022-09-04T19:53:33.979Z,99.90
2022-09-04T19:55:36.259Z,99.90
2022-09-04T19:58:27.414Z,99.90
2022-09-04T20:01:17.356Z,99.90
2022-09-04T20:04:09.933Z,99.90
2022-09-04T20:07:02.638Z,99.90
2022-09-04T20:09:51.940Z,99.90
2022-09-04T20:12:50.875Z,99.90
2022-09-04T20:15:43.019Z,99.90
2022-09-04T20:18:38.797Z,99.90
2022-09-04T20:21:34.634Z,99.90
2022-09-04T20:24:24.449Z,99.90
2022-09-04T20:27:15.953Z,99.90
2022-09-04T20:30:08.374Z,99.90
2022-09-04T20:33:01.776Z,99.90
2022-09-04T20:35:54.077Z,99.90
2022-09-04T20:38:46.109Z,99.90
2022-09-04T20:41:35.605Z,99.90
2022-09-04T20:44:28.516Z,99.90
2022-09-04T20:52:45.033Z,99.90
2022-09-04T20:52:54.417Z,99.90
2022-09-04T20:53:41.511Z,99.90
2022-09-04T20:57:29.742Z,99.90
2022-09-04T21:03:24.383Z,99.90
2022-09-04T21:03:24.519Z,99.90
2022-09-04T21:06:11.786Z,99.90
2022-09-04T21:09:08.755Z,99.90
2022-09-04T21:12:02.313Z,99.90
2022-09-04T21:14:51.672Z,99.90
2022-09-04T21:17:45.048Z,99.90
2022-09-04T21:20:44.852Z,99.90
2022-09-04T21:24:03.674Z,99.90
2022-09-04T21:27:06.833Z,99.90
2022-09-04T21:29:59.545Z,99.90
2022-09-04T21:33:21.484Z,99.90
2022-09-04T21:36:25.243Z,99.90
2022-09-04T21:39:26.137Z,99.90
2022-09-04T21:42:22.291Z,99.90
2022-09-04T21:45:20.179Z,99.90
2022-09-04T21:48:28.273Z,99.90
2022-09-04T21:51:31.738Z,99.90
2022-09-04T21:54:37.600Z,99.90
2022-09-04T22:02:30.816Z,99.90
2022-09-04T22:02:49.738Z,99.90
2022-09-04T22:04:35.284Z,99.90
2022-09-04T22:10:16.845Z,99.90
2022-09-04T22:13:31.196Z,99.90
2022-09-04T22:14:03.383Z,99.90
2022-09-04T22:17:06.819Z,99.90
2022-09-04T22:20:15.185Z,99.90
2022-09-04T22:23:27.834Z,99.90
2022-09-04T22:26:29.157Z,99.90
2022-09-04T22:29:39.344Z,99.90
2022-09-04T22:32:52.344Z,99.90
2022-09-04T22:35:59.978Z,99.90
2022-09-04T22:39:02.262Z,99.90
2022-09-04T22:42:05.467Z,99.90
2022-09-04T22:45:10.016Z,99.90
2022-09-04T22:48:13.982Z,99.90
2022-09-04T22:51:07.551Z,99.90
2022-09-04T22:54:19.561Z,99.90
2022-09-04T22:57:11.384Z,99.90
2022-09-04T23:00:10.259Z,99.90
2022-09-04T23:03:20.415Z,99.90
2022-09-04T23:07:38.822Z,99.90
2022-09-04T23:13:44.860Z,99.90
2022-09-04T23:14:01.605Z,99.90
2022-09-04T23:16:36.590Z,99.90
2022-09-04T23:25:41.701Z,99.90
2022-09-04T23:26:43.385Z,99.90
2022-09-04T23:26:43.931Z,99.90
2022-09-04T23:29:41.135Z,99.90
2022-09-04T23:32:41.395Z,99.90
2022-09-04T23:35:36.688Z,99.90
2022-09-04T23:38:29.913Z,99.90
2022-09-04T23:41:22.717Z,99.90
2022-09-04T23:44:30.091Z,99.90
2022-09-04T23:47:48.810Z,99.90
2022-09-04T23:50:45.270Z,99.90
2022-09-04T23:53:36.114Z,99.90
2022-09-04T23:56:27.003Z,99.90
2022-09-04T23:59:39.480Z,99.90
